Eau Galle, Wisconsin
Current Conditions -  °F | °C
As of 2:15 AM on Thursday 27 Nov 2014 (Local Time) from KLUM Reporting Station
Clear Clear  
Wind Chill: -4°   Ceiling: Unl
Heat Index: 10°   Visibility: 10mi
Dew Point:   Wind: 12mph
Humidity: 68%   Direction: 330°NNW
Pressure: 30.39"   Gusts: NA
Location:  44.69°N, 92.01°W
Report Text: KLUM 270815Z AUTO 33010KT 10SM CLR M12/M17 A3039 RMK AO2 T11201168
Loading
Personal Weather Stations






























Interactive Weather Map New forecast layout! Learn more

10-Day Weather Forecast

Advertisements
Track Severe Weather on mobile